PAJNPASI

Guest
Details From PAJN - Juneau Intl
To PASI - SITKA ROCKY GUTIERREZ
Flight Number -
Tags decoded
Created
Modified
Stats Distance 117 nm / 216 km
Max Altitude 0 ft / 0 m
Waypoints 4
Social Downloads 0
Likes 0
Share VATSIM

Download

Looking for another format? Having issues loading an existing format? Contact us
Advertisement - Login to hide

Notes

Requested: PAJN SSR BKA PASI

Route

PAJN SSR BKA PASI

ID Type Via Altitude Latitude Longitude Leg Dist Tot Dist Heading (true) Name
O PAJN APT - 0 ft / 0 m 58.35496˚ -134.57628˚ - 0 nm - Juneau Intl
SSR VOR - 0 ft / 0 m 58.17767˚ -135.25886˚ 24 nm 24 nm 244° / 243° SISTERS ISLAND VORTAC
BKA VOR - 0 ft / 0 m 56.85942˚ -135.55131˚ 79 nm 103 nm 187° / 187° BIORKA ISLAND VORTAC
O PASI APT - 0 ft / 0 m 57.04713˚ -135.36160˚ 12 nm 116 nm 29° / 29° SITKA ROCKY GUTIERREZ

Altitude Profile

Advertisement - Login to hide

PAJN

Details ICAO PAJN (JNU)
Name Juneau Intl
Region USA (Alaska)
Timezone America/Juneau (UTC-9.0)
Stats Elevation 21 ft / 6 m (AMSL)
Location 58.354964° -134.576278°
Runways 1
Magnetic Variation 19.150° E

METAR

PAJN 122153Z 08009KT 10SM FEW006 SCT055 BKN090 OVC200 08/07 A3023

Decode

TAF

PAJN 121725Z 1218/1318 10007KT P6SM -RA BKN025 OVC035 FM122000 10007KT P6SM VCSH BKN040 OVC060 FM130600 11004KT 6SM -RA BR OVC040

Decode

Departure Runways

ID Width Length Bearing (true) Bearing (mag) Surface Threshold Offset Overrun Length
08 150 ft / 46 m 8,430 ft / 2,570 m 104.87° 85.72° Asphalt 0 ft / 0 m 450 ft / 137 m
26 150 ft / 46 m 8,430 ft / 2,570 m 284.90° 265.75° Asphalt 0 ft / 0 m 225 ft / 69 m

PASI

Details ICAO PASI (SIT)
Name SITKA ROCKY GUTIERREZ
Region USA (Alaska)
Timezone America/Juneau (UTC-9.0)
Stats Elevation 21 ft / 6 m (AMSL)
Location 57.047128° -135.361597°
Runways 1
Magnetic Variation 18.753° E

METAR

PASI 122153Z 04003KT 10SM BKN039 BKN045 07/07 A3020

Decode

TAF

TAF PASI 121726Z 1218/1318 10008KT P6SM VCSH OVC050 FM130300 10014KT P6SM -RA BKN040 OVC050

Decode

Destination Runways

ID Width Length Bearing (true) Bearing (mag) Surface Threshold Offset Overrun Length
11 150 ft / 46 m 6,485 ft / 1,977 m 135.57° 116.82° Asphalt 0 ft / 0 m 0 ft / 0 m
29 150 ft / 46 m 6,485 ft / 1,977 m 315.59° 296.84° Asphalt 0 ft / 0 m 0 ft / 0 m

Approach Navaids

Runway Type Ident Frequency Range Bearing (true) Bearing (mag) Slope Elevation
11 Localiser ISIT 108.90 MHz 18 nm / 33 km 143.51° 124.75° - 15 ft / 5 m (AMSL)
11 DME ISIT 108.90 MHz 18 nm / 33 km - - - 34 ft / 10 m (AMSL)

Popular Alternatives